Time;durP1;ratioP1;P1;durP2;ratioP2;P2;SDS_P1;SDS_P2;PMS_P1;PMS_P2;Temp;Humidity;BMP_temperature;BMP_pressure;BME280_temperature;BME280_humidity;BME280_pressure;Samples;Min_cycle;Max_cycle;Signal;HPM_P1;HPM_P2
2023/06/14 00:01:59;;;;;;;0.00;0.00;;;18.70;99.90;;;;;;6067512;23;20030;-81
2023/06/14 00:04:26;;;;;;;0.00;0.00;;;18.60;99.90;;;;;;6064986;23;20027;-81
2023/06/14 00:06:53;;;;;;;0.00;0.00;;;18.60;99.90;;;;;;6064732;23;20026;-82
2023/06/14 00:09:20;;;;;;;0.00;0.00;;;18.60;99.90;;;;;;6065437;23;20030;-82
2023/06/14 00:11:47;;;;;;;0.00;0.00;;;18.60;99.90;;;;;;6065739;23;20078;-81
2023/06/14 00:14:14;;;;;;;0.00;0.00;;;18.60;99.90;;;;;;6067458;23;20027;-82
2023/06/14 00:16:42;;;;;;;0.00;0.00;;;18.60;99.90;;;;;;6065792;23;20330;-82
2023/06/14 00:19:10;;;;;;;0.00;0.00;;;18.60;99.90;;;;;;6067237;23;20350;-82
2023/06/14 00:21:38;;;;;;;0.00;0.00;;;18.60;99.90;;;;;;6065248;23;20102;-82
2023/06/14 00:24:05;;;;;;;0.00;0.00;;;18.60;99.90;;;;;;6065594;23;20057;-82
2023/06/14 00:26:32;;;;;;;0.00;0.00;;;18.60;99.90;;;;;;6066287;23;20023;-81
2023/06/14 00:28:59;;;;;;;0.00;0.00;;;18.60;99.90;;;;;;6065997;23;20026;-82
2023/06/14 00:31:26;;;;;;;0.00;0.00;;;18.60;99.90;;;;;;6065445;23;20033;-82
2023/06/14 00:33:53;;;;;;;0.00;0.00;;;18.60;99.90;;;;;;6066128;23;20071;-85
2023/06/14 00:36:20;;;;;;;0.00;0.00;;;18.60;99.90;;;;;;6065215;23;20026;-84
2023/06/14 00:38:47;;;;;;;0.00;0.00;;;18.60;99.90;;;;;;6066236;23;20019;-84
2023/06/14 00:41:14;;;;;;;0.00;0.00;;;18.50;99.90;;;;;;6065411;23;20030;-84
2023/06/14 00:43:41;;;;;;;0.00;0.00;;;18.50;99.90;;;;;;6064836;23;20027;-85
2023/06/14 00:46:08;;;;;;;0.00;0.00;;;18.50;99.90;;;;;;6065793;23;20023;-84
2023/06/14 00:48:37;;;;;;;0.00;0.00;;;18.50;99.90;;;;;;6066315;23;20038;-83
2023/06/14 00:51:04;;;;;;;0.00;0.00;;;18.50;99.90;;;;;;6065977;23;20531;-83
2023/06/14 00:53:34;;;;;;;0.00;0.00;;;18.50;99.90;;;;;;6065045;23;20027;-82
2023/06/14 00:56:01;;;;;;;0.00;0.00;;;18.50;99.90;;;;;;6065636;23;20338;-83
2023/06/14 00:58:28;;;;;;;0.00;0.00;;;18.50;99.90;;;;;;6065029;23;20023;-83
2023/06/14 01:00:56;;;;;;;0.00;0.00;;;18.50;99.90;;;;;;6065055;23;20106;-84
2023/06/14 01:03:25;;;;;;;0.00;0.00;;;18.50;99.90;;;;;;6070622;23;20489;-80
2023/06/14 01:06:02;;;;;;;0.00;0.00;;;18.50;99.90;;;;;;6099071;23;20049;-81
2023/06/14 01:08:47;;;;;;;0.00;0.00;;;18.50;99.90;;;;;;6097057;23;20097;-82
2023/06/14 01:11:23;;;;;;;0.00;0.00;;;18.50;99.90;;;;;;6098443;23;20395;-82
2023/06/14 01:13:53;;;;;;;0.00;0.00;;;18.50;99.90;;;;;;6098329;23;20029;-81
2023/06/14 01:16:20;;;;;;;0.00;0.00;;;18.50;99.90;;;;;;6099274;23;20022;-82
2023/06/14 01:18:49;;;;;;;0.00;0.00;;;18.60;99.90;;;;;;6097205;23;20093;-82
2023/06/14 01:21:25;;;;;;;0.00;0.00;;;18.60;99.90;;;;;;6098831;23;20033;-81
2023/06/14 01:23:52;;;;;;;0.00;0.00;;;18.60;99.90;;;;;;6098237;23;20018;-82
2023/06/14 01:26:23;;;;;;;0.00;0.00;;;18.60;99.90;;;;;;6099193;23;20404;-83
2023/06/14 01:28:52;;;;;;;0.00;0.00;;;18.60;99.90;;;;;;6098004;23;20026;-82
2023/06/14 01:31:24;;;;;;;0.00;0.00;;;18.60;99.90;;;;;;6099303;23;20045;-81
2023/06/14 01:33:52;;;;;;;0.00;0.00;;;18.60;99.90;;;;;;6097595;23;20022;-81
2023/06/14 01:36:20;;;;;;;0.00;0.00;;;18.60;99.90;;;;;;6098871;23;20101;-81
2023/06/14 01:38:50;;;;;;;0.00;0.00;;;18.60;99.90;;;;;;6098211;23;20045;-81
2023/06/14 01:41:20;;;;;;;0.00;0.00;;;18.60;99.90;;;;;;6098968;23;20026;-81
2023/06/14 01:43:49;;;;;;;0.00;0.00;;;18.60;99.90;;;;;;6097797;23;20455;-82
2023/06/14 01:46:16;;;;;;;0.00;0.00;;;18.60;99.90;;;;;;6099264;23;20409;-82
2023/06/14 01:48:44;;;;;;;0.00;0.00;;;18.60;99.90;;;;;;6097833;23;20030;-82
2023/06/14 01:51:11;;;;;;;0.00;0.00;;;18.50;99.90;;;;;;6098960;23;20026;-82
2023/06/14 01:53:38;;;;;;;0.00;0.00;;;18.50;99.90;;;;;;6097722;23;20026;-81
2023/06/14 01:56:05;;;;;;;0.00;0.00;;;18.50;99.90;;;;;;6098658;23;20037;-81
2023/06/14 01:58:32;;;;;;;0.00;0.00;;;18.40;99.90;;;;;;6097585;23;20033;-82
2023/06/14 02:01:00;;;;;;;0.00;0.00;;;18.40;99.90;;;;;;6098914;23;20029;-81
2023/06/14 02:03:28;;;;;;;0.00;0.00;;;18.40;99.90;;;;;;6098271;23;20482;-81
2023/06/14 02:05:55;;;;;;;0.00;0.00;;;18.40;99.90;;;;;;6097741;23;20077;-80
2023/06/14 02:08:23;;;;;;;0.00;0.00;;;18.40;99.90;;;;;;6098668;23;20025;-81
2023/06/14 02:10:50;;;;;;;0.00;0.00;;;18.40;99.90;;;;;;6097369;23;20364;-81
2023/06/14 02:13:17;;;;;;;0.00;0.00;;;18.40;99.90;;;;;;6098522;23;20385;-82
2023/06/14 02:15:45;;;;;;;0.00;0.00;;;18.40;99.90;;;;;;6123374;23;20038;-81
2023/06/14 02:18:12;;;;;;;0.00;0.00;;;18.40;99.90;;;;;;6098188;23;20025;-81
2023/06/14 02:20:39;;;;;;;0.00;0.00;;;18.40;99.90;;;;;;6097579;23;20097;-82
2023/06/14 02:23:07;;;;;;;0.00;0.00;;;18.40;99.90;;;;;;6098609;23;20036;-80
2023/06/14 02:25:35;;;;;;;0.00;0.00;;;18.40;99.90;;;;;;6122339;23;20073;-81
2023/06/14 02:28:02;;;;;;;0.00;0.00;;;18.40;99.90;;;;;;6098701;23;20030;-81
2023/06/14 02:30:29;;;;;;;0.00;0.00;;;18.40;99.90;;;;;;6124279;23;20158;-81
2023/06/14 02:32:56;;;;;;;0.00;0.00;;;18.40;99.90;;;;;;6097512;23;20341;-81
2023/06/14 02:35:26;;;;;;;0.00;0.00;;;18.30;99.90;;;;;;6124061;23;20086;-81
2023/06/14 02:37:53;;;;;;;0.00;0.00;;;18.40;99.90;;;;;;6121855;23;20026;-81
2023/06/14 02:40:20;;;;;;;0.00;0.00;;;18.40;99.90;;;;;;6098736;23;20026;-80
2023/06/14 02:42:47;;;;;;;0.00;0.00;;;18.40;99.90;;;;;;6097669;23;20032;-81
2023/06/14 02:45:14;;;;;;;0.00;0.00;;;18.40;99.90;;;;;;6098618;23;20082;-82
2023/06/14 02:47:41;;;;;;;0.00;0.00;;;18.40;99.90;;;;;;6097328;23;20486;-81
2023/06/14 02:50:09;;;;;;;0.00;0.00;;;18.40;99.90;;;;;;6098911;23;20033;-81
2023/06/14 02:52:36;;;;;;;0.00;0.00;;;18.40;99.90;;;;;;6097282;23;20029;-81
2023/06/14 02:55:04;;;;;;;0.00;0.00;;;18.40;99.90;;;;;;6122853;23;20362;-81
2023/06/14 02:57:31;;;;;;;0.00;0.00;;;18.40;99.90;;;;;;6098459;23;20026;-82
2023/06/14 03:00:01;;;;;;;0.00;0.00;;;18.40;99.90;;;;;;6123933;23;20026;-78
2023/06/14 03:02:28;;;;;;;0.00;0.00;;;18.40;99.90;;;;;;6097933;23;20333;-79
2023/06/14 03:04:55;;;;;;;0.00;0.00;;;18.40;99.90;;;;;;6122372;23;20022;-78
2023/06/14 03:07:23;;;;;;;0.00;0.00;;;18.40;99.90;;;;;;6097673;23;20025;-78
2023/06/14 03:09:50;;;;;;;0.00;0.00;;;18.40;99.90;;;;;;6096908;23;20049;-78
2023/06/14 03:12:17;;;;;;;0.00;0.00;;;18.40;99.90;;;;;;6097646;23;20022;-78
2023/06/14 03:14:46;;;;;;;0.00;0.00;;;18.40;99.90;;;;;;6122025;23;20018;-78
2023/06/14 03:17:13;;;;;;;0.00;0.00;;;18.40;99.90;;;;;;6098046;23;20022;-78
2023/06/14 03:19:41;;;;;;;0.00;0.00;;;18.30;99.90;;;;;;6120859;23;20054;-78
2023/06/14 03:22:08;;;;;;;;;;;18.40;99.90;;;;;;6098319;23;20029;-78
2023/06/14 03:24:36;;;;;;;0.00;0.00;;;18.40;99.90;;;;;;6098566;23;20298;-78
2023/06/14 03:27:04;;;;;;;0.00;0.00;;;18.40;99.90;;;;;;6099212;23;20523;-78
2023/06/14 03:29:31;;;;;;;0.00;0.00;;;18.40;99.90;;;;;;6099361;23;20030;-78
2023/06/14 03:32:03;;;;;;;0.00;0.00;;;18.40;99.90;;;;;;6098758;23;20030;-78
2023/06/14 03:34:30;;;;;;;0.00;0.00;;;18.40;99.90;;;;;;6099477;23;20034;-79
2023/06/14 03:36:57;;;;;;;0.00;0.00;;;18.40;99.90;;;;;;6122972;23;20065;-79
2023/06/14 03:39:24;;;;;;;0.00;0.00;;;18.40;99.90;;;;;;6099168;23;20025;-78
2023/06/14 03:41:51;;;;;;;0.00;0.00;;;18.40;99.90;;;;;;6124913;23;20337;-79
2023/06/14 03:44:18;;;;;;;0.00;0.00;;;18.40;99.90;;;;;;6099297;23;20359;-78
2023/06/14 03:46:46;;;;;;;0.00;0.00;;;18.30;99.90;;;;;;6098189;23;20032;-78
2023/06/14 03:49:13;;;;;;;0.00;0.00;;;18.30;99.90;;;;;;6125297;23;20028;-78
2023/06/14 03:51:40;;;;;;;0.00;0.00;;;18.30;99.90;;;;;;6099125;23;20085;-78
2023/06/14 03:54:07;;;;;;;0.00;0.00;;;18.30;99.90;;;;;;6098568;23;20092;-79
2023/06/14 03:56:37;;;;;;;0.00;0.00;;;18.30;99.90;;;;;;6125783;23;20029;-78
2023/06/14 03:59:04;;;;;;;0.00;0.00;;;18.30;99.90;;;;;;6098382;23;20026;-78
2023/06/14 04:01:31;;;;;;;;;;;18.30;99.90;;;;;;6099915;23;20049;-78
2023/06/14 04:03:57;;;;;;;;;;;18.40;99.90;;;;;;6098596;23;19924;-78
2023/06/14 04:06:31;;;;;;;;;;;18.40;99.90;;;;;;6100142;23;19921;-78
2023/06/14 04:09:02;;;;;;;;;;;18.30;99.90;;;;;;6098172;23;19924;-79
2023/06/14 04:11:29;;;;;;;;;;;18.40;99.90;;;;;;6099778;23;19964;-79
2023/06/14 04:13:56;;;;;;;;;;;18.40;99.90;;;;;;6124302;23;19925;-79
2023/06/14 04:16:23;;;;;;;;;;;18.40;99.90;;;;;;6099875;23;19917;-78
2023/06/14 04:18:52;;;;;;;;;;;18.40;99.90;;;;;;6099212;23;20000;-78
2023/06/14 04:21:19;;;;;;;;;;;18.40;99.90;;;;;;6124768;23;19917;-78
2023/06/14 04:23:46;;;;;;;;;;;18.40;99.90;;;;;;6099135;23;19936;-80
2023/06/14 04:26:13;;;;;;;;;;;18.40;99.90;;;;;;6099608;23;20251;-78
2023/06/14 04:28:40;;;;;;;;;;;18.40;99.90;;;;;;6099616;23;19924;-78
2023/06/14 04:31:08;;;;;;;;;;;18.40;99.90;;;;;;6098522;23;19916;-78
2023/06/14 04:33:42;;;;;;;;;;;18.40;99.90;;;;;;6099491;23;19921;-79
2023/06/14 04:36:17;;;;;;;0.00;0.00;;;18.40;99.90;;;;;;6097909;23;19917;-79
2023/06/14 04:38:46;;;;;;;0.00;0.00;;;18.40;99.90;;;;;;6099708;23;20073;-78
2023/06/14 04:41:13;;;;;;;0.00;0.00;;;18.40;99.90;;;;;;6099528;23;20092;-78
2023/06/14 04:43:40;;;;;;;0.00;0.00;;;18.40;99.90;;;;;;6099367;23;20026;-79
2023/06/14 04:46:10;;;;;;;0.00;0.00;;;18.40;99.90;;;;;;6099384;23;20030;-78
2023/06/14 04:48:40;;;;;;;0.00;0.00;;;18.40;99.90;;;;;;6098327;23;20450;-78
2023/06/14 04:51:08;;;;;;;0.00;0.00;;;18.50;99.90;;;;;;6097127;23;20430;-79
2023/06/14 04:53:35;;;;;;;0.00;0.00;;;18.40;99.90;;;;;;6097856;23;20395;-78
2023/06/14 04:56:03;;;;;;;0.00;0.00;;;18.50;99.90;;;;;;6097472;23;20384;-78
2023/06/14 04:58:31;;;;;;;0.00;0.00;;;18.60;99.90;;;;;;6098262;23;20390;-79
2023/06/14 05:00:59;;;;;;;0.00;0.00;;;18.60;99.90;;;;;;6122133;23;20383;-78
2023/06/14 05:03:27;;;;;;;0.00;0.00;;;18.60;99.90;;;;;;6097786;23;20660;-79
2023/06/14 05:05:54;;;;;;;0.00;0.00;;;18.60;99.90;;;;;;6097789;23;20380;-78
2023/06/14 05:08:25;;;;;;;0.00;0.00;;;18.60;99.90;;;;;;6098363;23;20797;-78
2023/06/14 05:10:53;;;;;;;0.00;0.00;;;18.70;99.90;;;;;;6122668;23;20384;-78
2023/06/14 05:13:21;;;;;;;0.00;0.00;;;18.60;99.90;;;;;;6098187;23;20375;-78
2023/06/14 05:15:48;;;;;;;0.00;0.00;;;18.70;99.90;;;;;;6097966;23;20380;-78
2023/06/14 05:18:16;;;;;;;0.00;0.00;;;18.60;99.90;;;;;;6122501;23;20376;-78
2023/06/14 05:20:43;;;;;;;0.00;0.00;;;18.60;99.90;;;;;;6098155;23;20414;-78
2023/06/14 05:23:14;;;;;;;0.00;0.00;;;18.70;99.90;;;;;;6096864;23;20518;-79
2023/06/14 05:25:43;;;;;;;0.00;0.00;;;18.70;99.90;;;;;;6098375;23;20379;-78
2023/06/14 05:28:11;;;;;;;0.00;0.00;;;18.70;99.90;;;;;;6096271;23;20861;-79
2023/06/14 05:30:39;;;;;;;0.00;0.00;;;18.80;99.90;;;;;;6123626;23;20375;-78
2023/06/14 05:33:06;;;;;;;0.00;0.00;;;18.80;99.90;;;;;;6120498;23;20375;-78
2023/06/14 05:35:33;;;;;;;0.00;0.00;;;18.80;99.90;;;;;;6097981;23;20415;-79
2023/06/14 05:38:01;;;;;;;0.00;0.00;;;18.80;99.90;;;;;;6096933;23;20375;-79
2023/06/14 05:40:28;;;;;;;0.00;0.00;;;18.80;99.90;;;;;;6098087;23;20451;-78
2023/06/14 05:42:54;;;;;;;0.00;0.00;;;18.90;99.90;;;;;;6096399;23;20427;-78
2023/06/14 05:45:21;;;;;;;0.00;0.00;;;18.90;99.90;;;;;;6097936;23;20427;-78
2023/06/14 05:47:48;;;;;;;0.00;0.00;;;18.90;99.90;;;;;;6097277;23;20388;-78
2023/06/14 05:50:15;;;;;;;0.00;0.00;;;19.00;99.90;;;;;;6097299;23;20402;-79
2023/06/14 05:52:42;;;;;;;0.00;0.00;;;19.00;99.90;;;;;;6099360;23;20084;-79
2023/06/14 05:55:11;;;;;;;0.00;0.00;;;19.00;99.90;;;;;;6098288;23;20029;-79
2023/06/14 05:57:40;;;;;;;0.00;0.00;;;19.00;99.90;;;;;;6098688;23;20034;-78
2023/06/14 06:00:11;;;;;;;0.00;0.00;;;19.00;99.90;;;;;;6097491;23;20033;-79
2023/06/14 06:02:38;;;;;;;0.00;0.00;;;19.00;99.90;;;;;;6124880;23;20080;-79
2023/06/14 06:05:06;;;;;;;0.00;0.00;;;19.00;99.90;;;;;;6092199;23;20030;-79
2023/06/14 06:07:33;;;;;;;0.00;0.00;;;19.00;99.90;;;;;;6093975;23;20022;-78
2023/06/14 06:10:03;;;;;;;0.00;0.00;;;19.00;99.90;;;;;;6093093;23;20027;-78
2023/06/14 06:12:31;;;;;;;0.00;0.00;;;19.00;99.90;;;;;;6093918;23;20029;-78
2023/06/14 06:14:57;;;;;;;0.00;0.00;;;19.00;99.90;;;;;;6093699;23;20026;-78
2023/06/14 06:17:26;;;;;;;0.00;0.00;;;19.10;99.90;;;;;;6094252;23;20070;-78
2023/06/14 06:20:07;;;;;;;0.00;0.00;;;19.10;99.90;;;;;;6093339;23;20070;-79
2023/06/14 06:22:35;;;;;;;0.00;0.00;;;19.00;99.90;;;;;;6094100;23;20028;-78
2023/06/14 06:25:02;;;;;;;0.00;0.00;;;19.00;99.90;;;;;;6093942;23;20424;-78
2023/06/14 06:27:29;;;;;;;0.00;0.00;;;19.00;99.90;;;;;;6093875;23;20076;-77
2023/06/14 06:29:56;;;;;;;0.00;0.00;;;19.00;99.90;;;;;;6093801;23;20401;-79
2023/06/14 06:32:23;;;;;;;0.00;0.00;;;19.00;99.90;;;;;;6095198;23;20341;-78
2023/06/14 06:34:50;;;;;;;0.00;0.00;;;19.00;99.90;;;;;;6093911;23;20330;-78
2023/06/14 06:37:17;;;;;;;0.00;0.00;;;19.00;99.90;;;;;;6092917;23;20031;-79
2023/06/14 06:39:44;;;;;;;0.00;0.00;;;19.10;99.90;;;;;;6093942;23;20371;-78
2023/06/14 06:42:12;;;;;;;0.00;0.00;;;19.10;99.90;;;;;;6092973;23;20022;-78
2023/06/14 06:44:39;;;;;;;0.00;0.00;;;19.20;99.90;;;;;;6093650;23;20034;-79
2023/06/14 06:47:06;;;;;;;0.00;0.00;;;19.20;99.90;;;;;;6092891;23;20041;-79
2023/06/14 06:49:33;;;;;;;0.00;0.00;;;19.30;99.90;;;;;;6095547;23;20022;-79
2023/06/14 06:52:02;;;;;;;0.00;0.00;;;19.40;99.90;;;;;;6094217;23;20400;-79
2023/06/14 06:54:29;;;;;;;0.00;0.00;;;19.40;99.90;;;;;;6093005;23;20022;-78
2023/06/14 06:56:56;;;;;;;0.00;0.00;;;19.50;99.90;;;;;;6094040;23;20026;-79
2023/06/14 06:59:23;;;;;;;0.00;0.00;;;19.60;99.90;;;;;;6096603;23;20030;-78
2023/06/14 07:01:50;;;;;;;0.00;0.00;;;19.60;99.90;;;;;;6095637;23;20029;-77
2023/06/14 07:04:20;;;;;;;0.00;0.00;;;19.60;99.90;;;;;;6094489;23;20026;-79
2023/06/14 07:06:47;;;;;;;0.00;0.00;;;19.60;99.90;;;;;;6095614;23;20037;-79
2023/06/14 07:09:15;;;;;;;0.00;0.00;;;19.70;99.90;;;;;;6094956;23;20022;-78
2023/06/14 07:11:46;;;;;;;0.00;0.00;;;19.70;99.90;;;;;;6095592;23;20031;-79
2023/06/14 07:14:13;;;;;;;0.00;0.00;;;19.80;99.90;;;;;;6094727;23;20026;-79
2023/06/14 07:16:41;;;;;;;0.00;0.00;;;19.90;99.90;;;;;;6095263;23;20049;-79
2023/06/14 07:19:09;;;;;;;0.00;0.00;;;19.90;99.90;;;;;;6095998;23;20026;-79
2023/06/14 07:21:38;;;;;;;0.00;0.00;;;20.00;99.90;;;;;;6094619;23;20030;-79
2023/06/14 07:24:06;;;;;;;0.00;0.00;;;20.10;99.90;;;;;;6095556;23;20026;-79
2023/06/14 07:26:33;;;;;;;0.00;0.00;;;20.10;99.90;;;;;;6096350;23;20105;-79
2023/06/14 07:29:01;;;;;;;0.00;0.00;;;20.20;99.90;;;;;;6094985;23;20023;-79
2023/06/14 07:31:28;;;;;;;0.00;0.00;;;20.30;99.90;;;;;;6094130;23;20030;-79
2023/06/14 07:33:55;;;;;;;0.00;0.00;;;20.30;99.90;;;;;;6095237;23;20364;-79
2023/06/14 07:36:22;;;;;;;0.00;0.00;;;20.30;99.90;;;;;;6094162;23;20074;-79
2023/06/14 07:38:49;;;;;;;0.00;0.00;;;20.40;99.90;;;;;;6119449;23;20026;-79
2023/06/14 07:41:16;;;;;;;0.00;0.00;;;20.50;99.90;;;;;;6094389;23;20034;-79
2023/06/14 07:43:43;;;;;;;0.00;0.00;;;20.50;99.90;;;;;;6096494;23;20097;-79
2023/06/14 07:46:10;;;;;;;0.00;0.00;;;20.50;99.20;;;;;;6118406;23;20026;-80
2023/06/14 07:48:37;;;;;;;0.00;0.00;;;20.60;99.60;;;;;;6095622;23;20389;-79
2023/06/14 07:51:04;;;;;;;0.00;0.00;;;20.70;99.50;;;;;;6094780;23;20409;-79
2023/06/14 07:53:31;;;;;;;0.00;0.00;;;20.80;99.80;;;;;;6094326;23;20034;-79
2023/06/14 07:55:58;;;;;;;0.00;0.00;;;20.90;98.70;;;;;;6094861;23;20528;-79
2023/06/14 07:58:25;;;;;;;0.00;0.00;;;21.00;98.70;;;;;;6094267;23;20353;-79
2023/06/14 08:00:52;;;;;;;0.00;0.00;;;21.20;99.00;;;;;;6095001;23;20029;-79
2023/06/14 08:03:19;;;;;;;0.00;0.00;;;21.50;98.40;;;;;;6095541;23;20022;-79
2023/06/14 08:05:46;;;;;;;0.00;0.00;;;21.70;96.50;;;;;;6100178;23;20081;-79
2023/06/14 08:08:13;;;;;;;0.00;0.00;;;22.00;96.00;;;;;;6099155;23;20025;-79
2023/06/14 08:10:40;;;;;;;0.00;0.00;;;22.20;94.30;;;;;;6099167;23;20026;-77
2023/06/14 08:13:09;;;;;;;0.00;0.00;;;22.30;92.80;;;;;;6099876;23;20026;-79
2023/06/14 08:15:36;;;;;;;0.00;0.00;;;22.20;92.90;;;;;;6125022;23;20334;-79
2023/06/14 08:18:03;;;;;;;0.00;0.00;;;22.30;92.50;;;;;;6100051;23;20021;-79
2023/06/14 08:20:31;;;;;;;0.00;0.00;;;22.30;92.00;;;;;;6123359;23;20018;-79
2023/06/14 08:22:58;;;;;;;0.00;0.00;;;22.20;92.10;;;;;;6123545;23;20022;-79
2023/06/14 08:25:25;;;;;;;0.00;0.00;;;22.20;92.70;;;;;;6099390;23;20018;-79
2023/06/14 08:27:52;;;;;;;0.00;0.00;;;22.10;92.00;;;;;;6098993;23;20018;-79
2023/06/14 08:30:19;;;;;;;0.00;0.00;;;22.00;92.30;;;;;;6124883;23;20022;-80
2023/06/14 08:32:46;;;;;;;0.00;0.00;;;21.90;92.80;;;;;;6098900;23;20026;-79
2023/06/14 08:35:19;;;;;;;0.00;0.00;;;21.80;92.30;;;;;;6100393;23;20388;-79
2023/06/14 08:37:46;;;;;;;0.00;0.00;;;21.70;93.30;;;;;;6099665;23;20032;-79
2023/06/14 08:40:22;;;;;;;0.00;0.00;;;21.60;93.20;;;;;;6100032;23;20337;-79
2023/06/14 08:42:54;;;;;;;0.00;0.00;;;21.60;94.00;;;;;;6098400;23;20025;-79
2023/06/14 08:45:23;;;;;;;0.00;0.00;;;21.60;94.50;;;;;;6099687;23;20025;-79
2023/06/14 08:47:57;;;;;;;0.00;0.00;;;21.60;94.30;;;;;;6099452;23;20022;-78
2023/06/14 08:50:29;;;;;;;0.00;0.00;;;21.60;94.50;;;;;;6099826;23;20032;-79
2023/06/14 08:53:02;;;;;;;0.00;0.00;;;21.60;93.80;;;;;;6099505;23;20037;-79
2023/06/14 08:55:30;;;;;;;0.00;0.00;;;21.60;94.00;;;;;;6099222;23;20025;-79
2023/06/14 08:58:03;;;;;;;0.00;0.00;;;21.60;94.10;;;;;;6099716;23;20072;-80
2023/06/14 09:00:32;;;;;;;0.00;0.00;;;21.60;94.90;;;;;;6099851;23;20033;-79
2023/06/14 09:02:59;;;;;;;0.00;0.00;;;21.60;95.10;;;;;;6098628;23;20092;-79
2023/06/14 09:05:28;;;;;;;0.00;0.00;;;21.70;96.20;;;;;;6099347;23;20032;-79
2023/06/14 09:08:00;;;;;;;0.00;0.00;;;21.70;95.40;;;;;;6098312;23;20030;-79
2023/06/14 09:10:37;;;;;;;0.00;0.00;;;21.80;94.80;;;;;;6099446;23;20077;-79
2023/06/14 09:13:06;;;;;;;0.00;0.00;;;21.80;95.90;;;;;;6124319;23;20045;-79
2023/06/14 09:15:35;;;;;;;0.00;0.00;;;21.90;94.70;;;;;;6098760;23;20026;-79
2023/06/14 09:18:02;;;;;;;0.00;0.00;;;22.00;94.00;;;;;;6098013;23;20049;-79
2023/06/14 09:20:30;;;;;;;0.00;0.00;;;22.10;93.90;;;;;;6098966;23;20028;-79
2023/06/14 09:22:58;;;;;;;0.00;0.00;;;22.20;95.10;;;;;;6097908;23;20026;-79
2023/06/14 09:25:25;;;;;;;0.00;0.00;;;22.30;94.40;;;;;;6101242;23;20033;-81
2023/06/14 09:28:07;;;;;;;0.00;0.00;;;22.40;93.30;;;;;;6122853;23;20022;-80
2023/06/14 09:30:37;;;;;;;0.00;0.00;;;22.60;93.50;;;;;;6098798;23;20101;-80
2023/06/14 09:33:04;;;;;;;0.00;0.00;;;22.70;92.70;;;;;;6097579;23;20340;-80
2023/06/14 09:35:32;;;;;;;0.00;0.00;;;22.90;91.50;;;;;;6099456;23;20052;-80
2023/06/14 09:37:59;;;;;;;0.00;0.00;;;22.90;88.90;;;;;;6123672;23;20030;-80
2023/06/14 09:40:26;;;;;;;0.00;0.00;;;22.90;90.30;;;;;;6098976;23;20057;-79
2023/06/14 09:42:55;;;;;;;0.00;0.00;;;22.90;90.30;;;;;;6098561;23;20022;-80
2023/06/14 09:45:22;;;;;;;0.00;0.00;;;23.00;88.80;;;;;;6098344;23;20026;-80
2023/06/14 09:47:50;;;;;;;0.00;0.00;;;23.20;90.40;;;;;;6098965;23;20030;-80
2023/06/14 09:50:32;;;;;;;0.00;0.00;;;23.30;88.30;;;;;;6102040;23;20033;-80
2023/06/14 09:53:07;;;;;;;0.00;0.00;;;23.40;83.70;;;;;;6121785;23;20030;-80
2023/06/14 09:55:40;;;;;;;0.00;0.00;;;23.30;83.10;;;;;;6098516;23;20025;-80
2023/06/14 09:58:08;;;;;;;0.00;0.00;;;23.30;89.70;;;;;;6097870;23;20026;-81
2023/06/14 10:00:36;;;;;;;0.00;0.00;;;23.50;90.40;;;;;;6098840;23;20022;-80
2023/06/14 10:03:11;;;;;;;0.00;0.00;;;23.80;85.40;;;;;;6097917;23;20025;-80
2023/06/14 10:05:41;;;;;;;0.00;0.00;;;23.90;85.20;;;;;;6099199;23;20029;-80
2023/06/14 10:08:10;;;;;;;0.00;0.00;;;24.10;82.90;;;;;;6097705;23;20029;-80
2023/06/14 10:10:40;;;;;;;0.00;0.00;;;24.00;82.50;;;;;;6098737;23;20030;-80
2023/06/14 10:13:07;;;;;;;0.00;0.00;;;24.00;82.50;;;;;;6098004;23;20109;-80
2023/06/14 10:16:12;;;;;;;0.00;0.00;;;23.90;79.70;;;;;;6098772;23;20029;-80
2023/06/14 10:18:39;;;;;;;0.00;0.00;;;23.70;80.60;;;;;;6056427;23;20025;-80
2023/06/14 10:21:37;;;;;;;0.00;0.00;;;23.60;82.00;;;;;;6122842;23;20384;-80
2023/06/14 10:24:08;;;;;;;0.00;0.00;;;23.50;82.50;;;;;;6087804;23;20034;-80
2023/06/14 10:26:35;;;;;;;0.00;0.00;;;23.40;84.30;;;;;;6098845;23;20057;-80
2023/06/14 10:29:09;;;;;;;0.00;0.00;;;23.10;80.90;;;;;;6122620;23;20097;-80
2023/06/14 10:31:56;;;;;;;0.00;0.00;;;22.80;85.70;;;;;;6098914;23;20018;-80
2023/06/14 10:34:27;;;;;;;0.00;0.00;;;22.60;87.10;;;;;;6099983;23;20389;-80
2023/06/14 10:37:02;;;;;;;;;;;22.40;89.20;;;;;;6101719;23;20022;-80
2023/06/14 10:39:30;;;;;;;0.00;0.00;;;22.30;91.90;;;;;;6100284;23;19966;-80
2023/06/14 10:42:00;;;;;;;0.00;0.00;;;22.30;90.70;;;;;;6100499;23;20076;-80
2023/06/14 10:44:59;;;;;;;0.00;0.00;;;22.30;92.60;;;;;;6100430;23;20026;-80
2023/06/14 10:47:27;;;;;;;0.00;0.00;;;22.50;93.00;;;;;;6100808;23;20053;-80
2023/06/14 10:50:13;;;;;;;0.00;0.00;;;22.60;90.50;;;;;;6101161;23;20364;-80
2023/06/14 10:52:42;;;;;;;0.00;0.00;;;22.70;90.10;;;;;;6124262;23;20334;-80
2023/06/14 10:55:14;;;;;;;0.00;0.00;;;22.80;89.90;;;;;;6101348;23;20033;-81
2023/06/14 10:57:51;;;;;;;0.00;0.00;;;23.00;90.60;;;;;;6124722;23;20025;-80
2023/06/14 11:00:26;;;;;;;0.00;0.00;;;23.20;88.10;;;;;;6124851;23;20030;-80
2023/06/14 11:03:35;;;;;;;0.00;0.00;;;23.40;83.70;;;;;;6100928;23;20021;-80
2023/06/14 11:06:15;;;;;;;0.00;0.00;;;23.70;81.50;;;;;;6125421;23;20109;-80
2023/06/14 11:09:19;;;;;;;0.00;0.00;;;24.00;80.70;;;;;;6099794;23;20078;-81
2023/06/14 11:11:47;;;;;;;0.00;0.00;;;24.50;80.60;;;;;;6099680;23;20025;-80
2023/06/14 11:14:14;;;;;;;0.00;0.00;;;24.90;77.00;;;;;;6100271;23;20057;-80
2023/06/14 11:16:41;;;;;;;0.00;0.00;;;25.30;72.90;;;;;;6100182;23;20022;-80
2023/06/14 11:19:08;;;;;;;0.00;0.00;;;25.50;67.90;;;;;;6100175;23;20022;-81
2023/06/14 11:21:40;;;;;;;0.00;0.00;;;25.60;70.50;;;;;;6100834;23;20352;-80
2023/06/14 11:24:11;;;;;;;0.00;0.00;;;25.60;68.80;;;;;;6124401;23;20862;-81
2023/06/14 11:26:40;;;;;;;0.00;0.00;;;25.60;68.70;;;;;;6100771;23;20053;-80
2023/06/14 11:29:06;;;;;;;0.00;0.00;;;25.60;66.00;;;;;;6099784;23;20036;-80
2023/06/14 11:31:33;;;;;;;0.00;0.00;;;25.60;66.50;;;;;;6099988;23;20022;-81
2023/06/14 11:34:01;;;;;;;0.00;0.00;;;25.50;66.30;;;;;;6099399;23;20026;-80
2023/06/14 11:36:29;;;;;;;0.00;0.00;;;25.50;65.30;;;;;;6100142;23;20026;-80
2023/06/14 11:39:03;;;;;;;0.00;0.00;;;25.40;66.10;;;;;;6099419;23;20046;-80
2023/06/14 11:41:38;;;;;;;0.00;0.00;;;25.70;66.80;;;;;;6100501;23;20026;-80
2023/06/14 11:44:06;;;;;;;0.00;0.00;;;26.00;67.00;;;;;;6099502;23;20025;-80
2023/06/14 11:46:33;;;;;;;0.00;0.00;;;26.40;66.90;;;;;;6100635;23;20073;-80
2023/06/14 11:49:06;;;;;;;0.00;0.00;;;26.40;61.80;;;;;;6099442;23;20028;-80
2023/06/14 11:51:35;;;;;;;0.00;0.00;;;26.30;61.20;;;;;;6099880;23;20101;-80
2023/06/14 11:54:03;;;;;;;0.00;0.00;;;26.40;63.90;;;;;;6099429;23;20022;-80
2023/06/14 11:56:31;;;;;;;0.00;0.00;;;26.60;64.00;;;;;;6125094;23;20029;-80
2023/06/14 11:59:00;;;;;;;0.00;0.00;;;26.80;61.00;;;;;;6099115;23;20053;-80
2023/06/14 12:01:27;;;;;;;0.00;0.00;;;26.50;59.00;;;;;;6099409;23;20018;-80
2023/06/14 12:03:55;;;;;;;0.00;0.00;;;26.30;60.50;;;;;;6098877;23;20519;-80
2023/06/14 12:06:28;;;;;;;0.00;0.00;;;26.10;62.00;;;;;;6099575;23;20092;-79
2023/06/14 12:08:56;;;;;;;0.00;0.00;;;25.70;63.80;;;;;;6098660;23;20022;-80
2023/06/14 12:11:24;;;;;;;0.00;0.00;;;25.50;65.80;;;;;;6099734;23;20396;-80
2023/06/14 12:13:51;;;;;;;0.00;0.00;;;25.70;65.00;;;;;;6099055;23;20030;-80
2023/06/14 12:16:17;;;;;;;0.00;0.00;;;25.80;63.40;;;;;;6124531;23;20029;-80
2023/06/14 12:18:45;;;;;;;0.00;0.00;;;25.90;64.90;;;;;;6100202;23;20073;-80
2023/06/14 12:21:12;;;;;;;0.00;0.00;;;25.90;63.80;;;;;;6098694;23;20049;-81
2023/06/14 12:23:44;;;;;;;0.00;0.00;;;25.90;66.50;;;;;;6100492;23;20026;-80
2023/06/14 12:26:16;;;;;;;0.00;0.00;;;25.70;66.90;;;;;;6098401;23;20022;-81
2023/06/14 12:28:44;;;;;;;0.00;0.00;;;25.60;66.70;;;;;;6099931;23;20046;-80
2023/06/14 12:31:13;;;;;;;0.00;0.00;;;25.40;65.40;;;;;;6098543;23;20073;-80
2023/06/14 12:33:41;;;;;;;0.00;0.00;;;25.40;65.80;;;;;;6100193;23;20022;-81
2023/06/14 12:36:09;;;;;;;0.00;0.00;;;25.40;65.40;;;;;;6098548;23;20072;-80
2023/06/14 12:38:37;;;;;;;0.00;0.00;;;25.20;65.30;;;;;;6099487;23;20026;-80
2023/06/14 12:41:04;;;;;;;0.00;0.00;;;25.10;67.20;;;;;;6098648;23;20026;-80
2023/06/14 12:43:31;;;;;;;0.00;0.00;;;25.00;67.40;;;;;;6125227;23;20077;-81
2023/06/14 12:45:59;;;;;;;0.00;0.00;;;25.00;68.70;;;;;;6098520;23;20021;-80
2023/06/14 12:48:30;;;;;;;0.00;0.00;;;25.00;68.40;;;;;;6099081;23;20041;-80
2023/06/14 12:50:58;;;;;;;0.00;0.00;;;25.20;72.80;;;;;;6098888;23;20026;-81
2023/06/14 12:53:25;;;;;;;0.00;0.00;;;25.30;68.50;;;;;;6100008;23;20033;-81
2023/06/14 12:55:52;;;;;;;0.00;0.00;;;25.50;67.60;;;;;;6122577;23;20412;-81
2023/06/14 12:58:19;;;;;;;0.00;0.00;;;25.70;68.50;;;;;;6099280;23;20026;-81
2023/06/14 13:00:47;;;;;;;0.00;0.00;;;26.10;67.90;;;;;;6099730;23;20438;-81